CheckWX is a tool to help pilots better visualize weather data.  It is not intended as a substitute for an official pre-flight weather briefing.

17:30:14 UTC

KADG METAR
Lenawee County Airport
Adrian, Michigan, USA
Current

37 mins ago

KADG 241653Z AUTO 22006KT 10SM OVC065 07/M02 A3015 RMK AO2 SLP218 T00671022 TSNO
Observed
Mar-24 @ 16:53 UTC
Wind
  • 220° at 6 KTS
Visibility
10 SM
Flight Rules
VFR
Cloud Levels
  • Overcast at 6,500' AGL
Temperature
C / 45°F
Dewpoint
-2°C / 28°F
Humidity
53%
Altimeter
30.15" Hg
Pressure
1021.8 hPa
Previous

2 hours ago

KADG 241553Z AUTO 00000KT 10SM BKN060 OVC080 06/M03 A3015 RMK AO2 SLP218 T00561033 TSNO
Observed
Mar-24 @ 15:53 UTC
Visibility
10 SM
Flight Rules
VFR
Cloud Levels
  • Broken at 6,000' AGL
  • Overcast at 8,000' AGL
Temperature
C / 43°F
Dewpoint
-3°C / 27°F
Humidity
53%
Altimeter
30.15" Hg
Pressure
1021.8 hPa
Previous

3 hours ago

KADG 241453Z AUTO 00000KT 10SM BKN065 OVC080 03/M03 A3016 RMK AO2 SLP222 T00281033 50000 TSNO
Observed
Mar-24 @ 14:53 UTC
Visibility
10 SM
Flight Rules
VFR
Cloud Levels
  • Broken at 6,500' AGL
  • Overcast at 8,000' AGL
Temperature
C / 37°F
Dewpoint
-3°C / 27°F
Humidity
65%
Altimeter
30.16" Hg
Pressure
1022.2 hPa